createdAt,value
2019-01-06T00:02:05.754Z,1.03
2019-01-06T00:05:25.381Z,1.04
2019-01-06T00:08:32.432Z,1.03
2019-01-06T00:11:47.520Z,1.04
2019-01-06T00:15:08.176Z,1.04
2019-01-06T00:18:15.722Z,1.07
2019-01-06T00:21:24.890Z,1.07
2019-01-06T00:24:32.623Z,1.08
2019-01-06T00:27:40.187Z,1.07
2019-01-06T00:30:51.717Z,1.09
2019-01-06T00:34:04.992Z,1.11
2019-01-06T00:37:25.530Z,1.11
2019-01-06T00:40:50.900Z,1.13
2019-01-06T00:44:04.154Z,1.13
2019-01-06T00:47:17.920Z,1.14
2019-01-06T00:50:43.318Z,1.14
2019-01-06T00:53:52.099Z,1.14
2019-01-06T00:57:14.244Z,1.15
2019-01-06T01:00:33.716Z,1.17
2019-01-06T01:03:51.290Z,1.17
2019-01-06T01:07:00.968Z,1.19
2019-01-06T01:10:08.747Z,1.21
2019-01-06T01:13:23.766Z,1.21
2019-01-06T01:16:31.672Z,1.22
2019-01-06T01:19:41.762Z,1.23
2019-01-06T01:22:48.906Z,1.24
2019-01-06T01:26:06.038Z,1.22
2019-01-06T01:29:12.715Z,1.24
2019-01-06T01:32:21.560Z,1.24
2019-01-06T01:35:41.995Z,1.28
2019-01-06T01:39:00.720Z,1.30
2019-01-06T01:42:22.063Z,1.32
2019-01-06T01:45:35.981Z,1.32
2019-01-06T01:48:52.901Z,1.33
2019-01-06T01:52:19.544Z,1.32
2019-01-06T01:55:35.845Z,1.32
2019-01-06T01:58:43.710Z,1.31
2019-01-06T02:02:02.795Z,1.33
2019-01-06T02:05:21.601Z,1.34
2019-01-06T02:08:36.988Z,1.34
2019-01-06T02:11:51.169Z,1.33
2019-01-06T02:14:58.497Z,1.33
2019-01-06T02:18:14.827Z,1.34
2019-01-06T02:21:24.466Z,1.33
2019-01-06T02:24:50.961Z,1.32
2019-01-06T02:27:59.924Z,1.33
2019-01-06T02:31:20.261Z,1.34
2019-01-06T02:34:28.203Z,1.39
2019-01-06T02:37:38.765Z,1.37
2019-01-06T02:40:45.954Z,1.36
2019-01-06T02:44:14.333Z,1.37
2019-01-06T02:47:24.701Z,1.35
2019-01-06T02:50:39.286Z,1.34
2019-01-06T02:53:51.090Z,1.35
2019-01-06T02:56:59.228Z,1.37
2019-01-06T03:00:09.894Z,1.35
2019-01-06T03:03:24.131Z,1.35
2019-01-06T03:06:38.172Z,1.40
2019-01-06T03:09:51.913Z,1.39
2019-01-06T03:13:00.304Z,1.39
2019-01-06T03:16:10.595Z,1.41
2019-01-06T03:19:30.871Z,1.39
2019-01-06T03:22:40.744Z,1.38
2019-01-06T03:25:49.754Z,1.39
2019-01-06T03:28:57.963Z,1.41
2019-01-06T03:32:14.360Z,1.40
2019-01-06T03:35:29.173Z,1.41
2019-01-06T03:38:51.998Z,1.43
2019-01-06T03:42:01.748Z,1.43
2019-01-06T03:45:21.943Z,1.41
2019-01-06T03:48:48.234Z,1.39
2019-01-06T03:52:02.456Z,1.38
2019-01-06T03:55:10.960Z,1.38
2019-01-06T03:58:25.441Z,1.39
2019-01-06T04:01:33.498Z,1.38
2019-01-06T04:04:48.704Z,1.40
2019-01-06T04:08:01.904Z,1.42
2019-01-06T04:11:15.257Z,1.45
2019-01-06T04:14:20.378Z,1.43
2019-01-06T04:17:29.021Z,1.39
2019-01-06T04:20:36.909Z,1.40
2019-01-06T04:23:45.425Z,1.41
2019-01-06T04:26:54.448Z,1.45
2019-01-06T04:30:10.016Z,1.44
2019-01-06T04:33:26.787Z,1.41
2019-01-06T04:36:40.300Z,1.43
2019-01-06T04:39:47.814Z,1.43
2019-01-06T04:43:11.781Z,1.42
2019-01-06T04:46:24.932Z,1.45
2019-01-06T04:49:33.541Z,1.44
2019-01-06T04:52:48.964Z,1.44
2019-01-06T04:56:04.807Z,1.45
2019-01-06T04:59:12.303Z,1.48
2019-01-06T05:02:21.663Z,1.50
2019-01-06T05:05:46.138Z,1.49
2019-01-06T05:08:45.661Z,1.48
2019-01-06T05:12:02.729Z,1.48
2019-01-06T05:15:17.165Z,1.48
2019-01-06T05:18:25.253Z,1.51
2019-01-06T05:21:46.097Z,1.53
2019-01-06T05:24:53.663Z,1.52
2019-01-06T05:28:02.648Z,1.51
2019-01-06T05:31:17.873Z,1.49
2019-01-06T05:34:31.224Z,1.49
2019-01-06T05:37:40.300Z,1.51
2019-01-06T05:40:55.331Z,1.53
2019-01-06T05:44:13.773Z,1.53
2019-01-06T05:47:33.606Z,1.49
2019-01-06T05:50:47.480Z,1.48
2019-01-06T05:54:07.261Z,1.51
2019-01-06T05:57:15.274Z,1.48
2019-01-06T06:00:36.002Z,1.52
2019-01-06T06:03:44.137Z,1.51
2019-01-06T06:06:54.572Z,1.52
2019-01-06T06:10:12.052Z,1.52
2019-01-06T06:13:30.379Z,1.53
2019-01-06T06:16:40.099Z,1.49
2019-01-06T06:19:47.193Z,1.51
2019-01-06T06:23:03.249Z,1.51
2019-01-06T06:26:29.498Z,1.50
2019-01-06T06:29:39.585Z,1.51
2019-01-06T06:32:47.558Z,1.52
2019-01-06T06:36:05.547Z,1.54
2019-01-06T06:39:26.146Z,1.50
2019-01-06T06:42:40.103Z,1.53
2019-01-06T06:45:56.341Z,1.52
2019-01-06T06:49:16.759Z,1.53
2019-01-06T06:52:32.175Z,1.50
2019-01-06T06:55:49.450Z,1.48
2019-01-06T06:58:57.403Z,1.47
2019-01-06T07:02:44.724Z,1.47
2019-01-06T07:06:08.763Z,1.50
2019-01-06T07:09:16.643Z,1.48
2019-01-06T07:12:36.807Z,1.46
2019-01-06T07:15:45.295Z,1.45
2019-01-06T07:18:56.325Z,1.48
2019-01-06T07:22:05.508Z,1.49
2019-01-06T07:25:13.292Z,1.49
2019-01-06T07:28:24.100Z,1.50
2019-01-06T07:31:39.692Z,1.47
2019-01-06T07:34:59.297Z,1.47
2019-01-06T07:38:09.401Z,1.55
2019-01-06T07:41:17.997Z,1.57
2019-01-06T07:44:33.512Z,1.55
2019-01-06T07:47:44.707Z,1.56
2019-01-06T07:51:02.412Z,1.55
2019-01-06T07:54:11.252Z,1.57
2019-01-06T07:57:34.277Z,1.57
2019-01-06T08:00:56.764Z,1.59
2019-01-06T08:04:16.290Z,1.61
2019-01-06T08:07:26.140Z,1.65
2019-01-06T08:10:39.243Z,1.65
2019-01-06T08:13:50.226Z,1.72
2019-01-06T08:17:18.340Z,1.73
2019-01-06T08:20:34.893Z,1.73
2019-01-06T08:23:49.336Z,1.76
2019-01-06T08:27:12.436Z,1.76
2019-01-06T08:30:20.356Z,1.74
2019-01-06T08:33:28.877Z,1.76
2019-01-06T08:36:37.916Z,1.79
2019-01-06T08:39:47.796Z,1.81
2019-01-06T08:42:55.603Z,1.84
2019-01-06T08:46:03.104Z,1.86
2019-01-06T08:49:15.003Z,1.91
2019-01-06T08:52:30.564Z,1.95
2019-01-06T08:55:38.521Z,1.95
2019-01-06T08:59:00.150Z,1.97
2019-01-06T09:02:26.606Z,1.95
2019-01-06T09:05:35.050Z,1.93
2019-01-06T09:08:45.816Z,1.89
2019-01-06T09:12:00.001Z,1.90
2019-01-06T09:15:10.564Z,1.89
2019-01-06T09:18:18.398Z,1.90
2019-01-06T09:21:37.874Z,1.96
2019-01-06T09:24:57.579Z,1.96
2019-01-06T09:28:08.184Z,1.98
2019-01-06T09:31:17.053Z,1.99
2019-01-06T09:34:44.363Z,2.01
2019-01-06T09:38:12.058Z,2.04
2019-01-06T09:41:21.508Z,2.05
2019-01-06T09:44:30.129Z,2.05
2019-01-06T09:47:38.894Z,2.08
2019-01-06T09:51:01.411Z,2.12
2019-01-06T09:54:10.127Z,2.16
2019-01-06T09:57:19.239Z,2.24
2019-01-06T10:00:27.039Z,2.25
2019-01-06T10:03:37.844Z,2.26
2019-01-06T10:06:57.160Z,2.28
2019-01-06T10:10:16.918Z,2.28
2019-01-06T10:13:30.577Z,2.29
2019-01-06T10:16:40.251Z,2.30
2019-01-06T10:19:50.244Z,2.29
2019-01-06T10:23:16.992Z,2.30
2019-01-06T10:26:24.518Z,2.32
2019-01-06T10:29:34.325Z,2.33
2019-01-06T10:32:50.337Z,2.36
2019-01-06T10:36:00.356Z,2.41
2019-01-06T10:39:24.875Z,2.44
2019-01-06T10:42:28.296Z,2.47
2019-01-06T10:45:37.143Z,2.48
2019-01-06T10:48:45.015Z,2.47
2019-01-06T10:52:11.157Z,2.45
2019-01-06T10:55:32.298Z,2.44
2019-01-06T10:58:40.454Z,2.42
2019-01-06T11:01:52.048Z,2.38
2019-01-06T11:05:07.621Z,2.37
2019-01-06T11:08:23.065Z,2.38
2019-01-06T11:11:32.287Z,2.37
2019-01-06T11:14:43.238Z,2.38
2019-01-06T11:17:52.080Z,2.39
2019-01-06T11:21:10.905Z,2.39
2019-01-06T11:24:19.876Z,2.39
2019-01-06T11:27:33.686Z,2.47
2019-01-06T11:30:51.164Z,2.51
2019-01-06T11:34:08.534Z,2.52
2019-01-06T11:37:15.895Z,2.53
2019-01-06T11:40:27.658Z,2.54
2019-01-06T11:43:45.244Z,2.52
2019-01-06T11:47:04.375Z,2.53
2019-01-06T11:50:18.808Z,2.56
2019-01-06T11:53:26.391Z,2.57
2019-01-06T11:56:33.808Z,2.55
2019-01-06T11:59:59.964Z,2.56
2019-01-06T12:03:12.445Z,2.61
2019-01-06T12:06:23.203Z,2.64
2019-01-06T12:09:37.170Z,2.63
2019-01-06T12:12:45.104Z,2.64
2019-01-06T12:16:05.563Z,2.66
2019-01-06T12:19:21.366Z,2.67
2019-01-06T12:22:34.611Z,2.76
2019-01-06T12:25:45.089Z,2.83
2019-01-06T12:29:07.672Z,2.81
2019-01-06T12:32:19.265Z,2.74
2019-01-06T12:35:28.330Z,2.68
2019-01-06T12:38:37.869Z,2.68
2019-01-06T12:41:47.163Z,2.70
2019-01-06T12:44:57.028Z,2.75
2019-01-06T12:48:05.554Z,2.85
2019-01-06T12:51:24.202Z,2.91
2019-01-06T12:54:34.854Z,2.91
2019-01-06T12:57:44.504Z,2.84
2019-01-06T13:00:54.312Z,2.80
2019-01-06T13:04:08.119Z,2.80
2019-01-06T13:07:31.698Z,2.79
2019-01-06T13:10:58.598Z,2.82
2019-01-06T13:14:17.061Z,2.84
2019-01-06T13:17:26.782Z,2.84
2019-01-06T13:20:45.878Z,2.83
2019-01-06T13:24:02.425Z,2.80
2019-01-06T13:27:11.636Z,2.77
2019-01-06T13:30:25.093Z,2.69
2019-01-06T13:33:36.949Z,2.69
2019-01-06T13:36:49.067Z,2.66
2019-01-06T13:39:58.948Z,2.64
2019-01-06T13:43:21.798Z,2.61
2019-01-06T13:46:38.538Z,2.63
2019-01-06T13:49:53.260Z,2.63
2019-01-06T13:53:01.208Z,2.60
2019-01-06T13:56:11.662Z,2.57
2019-01-06T13:59:33.789Z,2.55
2019-01-06T14:02:55.355Z,2.54
2019-01-06T14:06:06.056Z,2.54
2019-01-06T14:09:20.557Z,2.54
2019-01-06T14:12:30.284Z,2.54
2019-01-06T14:15:38.575Z,2.52
2019-01-06T14:18:48.068Z,2.49
2019-01-06T14:22:04.312Z,2.48
2019-01-06T14:25:13.230Z,2.46
2019-01-06T14:28:20.616Z,2.44
2019-01-06T14:31:32.320Z,2.41
2019-01-06T14:34:40.325Z,2.39
2019-01-06T14:37:49.364Z,2.38
2019-01-06T14:41:00.143Z,2.35
2019-01-06T14:44:09.546Z,2.34
2019-01-06T14:47:18.889Z,2.33
2019-01-06T14:50:27.569Z,2.32
2019-01-06T14:53:45.894Z,2.30
2019-01-06T14:57:01.929Z,2.29
2019-01-06T15:00:10.974Z,2.27
2019-01-06T15:03:22.756Z,2.21
2019-01-06T15:06:30.670Z,2.18
2019-01-06T15:09:39.938Z,2.14
2019-01-06T15:12:48.814Z,2.11
2019-01-06T15:15:58.443Z,2.07
2019-01-06T15:19:06.407Z,2.02
2019-01-06T15:22:14.941Z,2.00
2019-01-06T15:25:22.734Z,1.96
2019-01-06T15:28:46.594Z,1.93
2019-01-06T15:32:08.536Z,1.91
2019-01-06T15:35:16.225Z,1.87
2019-01-06T15:38:35.516Z,1.85
2019-01-06T15:41:44.440Z,1.82
2019-01-06T15:45:08.940Z,1.80
2019-01-06T15:48:24.705Z,1.79
2019-01-06T15:51:33.090Z,1.76
2019-01-06T15:54:43.105Z,1.74
2019-01-06T15:57:57.326Z,1.74
2019-01-06T16:01:05.752Z,1.71
2019-01-06T16:04:15.111Z,1.71
2019-01-06T16:07:22.792Z,1.70
2019-01-06T16:10:33.572Z,1.69
2019-01-06T16:13:51.843Z,1.67
2019-01-06T16:17:11.280Z,1.65
2019-01-06T16:20:24.652Z,1.65
2019-01-06T16:23:32.863Z,1.63
2019-01-06T16:26:46.395Z,1.63
2019-01-06T16:29:57.973Z,1.64
2019-01-06T16:33:09.243Z,1.64
2019-01-06T16:36:19.049Z,1.65
2019-01-06T16:39:28.030Z,1.62
2019-01-06T16:42:45.584Z,1.61
2019-01-06T16:46:09.362Z,1.59
2019-01-06T16:49:29.352Z,1.59
2019-01-06T16:52:52.725Z,1.58
2019-01-06T16:56:00.318Z,1.56
2019-01-06T16:59:20.590Z,1.57
2019-01-06T17:02:25.531Z,1.57
2019-01-06T17:05:37.736Z,1.58
2019-01-06T17:09:00.845Z,1.57
2019-01-06T17:12:08.726Z,1.56
2019-01-06T17:15:25.667Z,1.56
2019-01-06T17:18:42.617Z,1.57
2019-01-06T17:21:50.815Z,1.58
2019-01-06T17:24:59.580Z,1.58
2019-01-06T17:28:18.750Z,1.60
2019-01-06T17:31:28.758Z,1.58
2019-01-06T17:34:55.474Z,1.58
2019-01-06T17:38:08.561Z,1.59
2019-01-06T17:41:28.644Z,1.61
2019-01-06T17:44:38.702Z,1.62
2019-01-06T17:48:01.751Z,1.60
2019-01-06T17:51:15.677Z,1.58
2019-01-06T17:54:24.491Z,1.56
2019-01-06T17:57:39.054Z,1.55
2019-01-06T18:00:57.906Z,1.55
2019-01-06T18:04:08.680Z,1.55
2019-01-06T18:07:16.954Z,1.56
2019-01-06T18:10:25.377Z,1.57
2019-01-06T18:13:34.526Z,1.56
2019-01-06T18:16:47.164Z,1.58
2019-01-06T18:20:01.410Z,1.60
2019-01-06T18:23:19.415Z,1.62
2019-01-06T18:26:30.537Z,1.66
2019-01-06T18:29:39.476Z,1.66
2019-01-06T18:32:46.918Z,1.66
2019-01-06T18:35:57.045Z,1.67
2019-01-06T18:39:06.269Z,1.69
2019-01-06T18:42:17.193Z,1.70
2019-01-06T18:45:33.172Z,1.73
2019-01-06T18:48:57.075Z,1.74
2019-01-06T18:52:20.844Z,1.75
2019-01-06T18:55:30.033Z,1.79
2019-01-06T18:58:40.033Z,1.81
2019-01-06T19:01:59.245Z,1.84
2019-01-06T19:05:11.637Z,1.89
2019-01-06T19:08:19.803Z,1.94
2019-01-06T19:11:39.906Z,1.97
2019-01-06T19:15:03.841Z,2.01
2019-01-06T19:18:29.261Z,2.04
2019-01-06T19:21:55.910Z,2.02
2019-01-06T19:25:15.211Z,2.03
2019-01-06T19:28:22.990Z,2.04
2019-01-06T19:31:34.333Z,2.03
2019-01-06T19:34:43.169Z,2.02
2019-01-06T19:37:59.814Z,2.01
2019-01-06T19:41:08.447Z,2.00
2019-01-06T19:44:23.113Z,1.98
2019-01-06T19:47:32.258Z,1.97
2019-01-06T19:50:55.151Z,1.95
2019-01-06T19:54:05.272Z,1.91
2019-01-06T19:57:32.943Z,1.92
2019-01-06T20:00:52.816Z,1.91
2019-01-06T20:04:06.156Z,1.92
2019-01-06T20:07:26.041Z,1.95
2019-01-06T20:10:33.645Z,1.96
2019-01-06T20:13:57.314Z,2.00
2019-01-06T20:17:07.726Z,1.98
2019-01-06T20:20:22.347Z,2.00
2019-01-06T20:23:37.079Z,2.00
2019-01-06T20:27:03.832Z,2.02
2019-01-06T20:30:14.001Z,2.02
2019-01-06T20:33:23.218Z,1.99
2019-01-06T20:36:31.613Z,2.02
2019-01-06T20:39:39.916Z,2.03
2019-01-06T20:42:50.549Z,2.02
2019-01-06T20:46:00.049Z,2.07
2019-01-06T20:49:18.663Z,2.12
2019-01-06T20:52:41.996Z,2.10
2019-01-06T20:55:48.452Z,2.07
2019-01-06T20:59:14.288Z,2.04
2019-01-06T21:02:22.106Z,2.04
2019-01-06T21:05:45.656Z,2.05
2019-01-06T21:09:13.329Z,2.09
2019-01-06T21:12:21.581Z,2.09
2019-01-06T21:15:31.985Z,2.07
2019-01-06T21:18:41.650Z,2.08
2019-01-06T21:21:58.988Z,2.07
2019-01-06T21:25:08.993Z,2.03
2019-01-06T21:28:20.121Z,2.04
2019-01-06T21:31:29.588Z,2.04
2019-01-06T21:34:56.365Z,2.05
2019-01-06T21:38:03.931Z,2.05
2019-01-06T21:41:21.258Z,2.05
2019-01-06T21:44:30.042Z,2.05
2019-01-06T21:47:38.348Z,2.04
2019-01-06T21:50:45.986Z,2.03
2019-01-06T21:53:54.088Z,2.01
2019-01-06T21:57:01.968Z,2.03
2019-01-06T22:00:12.722Z,2.01
2019-01-06T22:03:28.337Z,2.02
2019-01-06T22:06:37.574Z,2.03
2019-01-06T22:09:47.144Z,2.01
2019-01-06T22:12:55.847Z,2.00
2019-01-06T22:16:09.285Z,1.99
2019-01-06T22:19:24.376Z,2.00
2019-01-06T22:22:37.988Z,1.99
2019-01-06T22:25:50.919Z,2.00
2019-01-06T22:28:59.753Z,2.00
2019-01-06T22:32:08.619Z,2.00
2019-01-06T22:35:16.567Z,2.00
2019-01-06T22:38:25.400Z,1.99
2019-01-06T22:41:33.034Z,1.99
2019-01-06T22:44:47.050Z,2.00
2019-01-06T22:47:54.596Z,1.99
2019-01-06T22:51:03.396Z,2.00
2019-01-06T22:54:10.336Z,2.02
2019-01-06T22:57:20.321Z,2.00
2019-01-06T23:00:30.022Z,1.99
2019-01-06T23:03:48.559Z,1.99
2019-01-06T23:07:11.509Z,1.99
2019-01-06T23:10:39.048Z,1.98
2019-01-06T23:13:50.815Z,1.97
2019-01-06T23:16:57.964Z,1.95
2019-01-06T23:20:21.546Z,1.96
2019-01-06T23:23:29.254Z,1.97
2019-01-06T23:26:38.772Z,1.97
2019-01-06T23:29:47.086Z,1.98
2019-01-06T23:32:55.828Z,1.96
2019-01-06T23:36:04.921Z,1.96
2019-01-06T23:39:15.417Z,1.96
2019-01-06T23:42:42.036Z,1.98
2019-01-06T23:45:49.368Z,1.97
2019-01-06T23:48:59.055Z,1.96
2019-01-06T23:52:12.197Z,1.97
2019-01-06T23:55:21.190Z,1.93
2019-01-06T23:58:36.989Z,1.94
